Time;durP1;ratioP1;P1;durP2;ratioP2;P2;SDS_P1;SDS_P2;PMS_P1;PMS_P2;Temp;Humidity;BMP_temperature;BMP_pressure;BME280_temperature;BME280_humidity;BME280_pressure;Samples;Min_cycle;Max_cycle;Signal;HPM_P1;HPM_P2
2023/08/16 00:03:53;;;;;;;10.55;7.15;;;20.00;99.90;;;;;;4931297;28;20242;-96
2023/08/16 00:06:19;;;;;;;9.52;7.20;;;20.00;99.90;;;;;;4937200;29;20283;-95
2023/08/16 00:08:44;;;;;;;8.95;7.63;;;20.00;99.90;;;;;;4928402;28;20630;-96
2023/08/16 00:11:10;;;;;;;9.98;6.88;;;20.00;99.90;;;;;;4975190;28;20176;-96
2023/08/16 00:13:47;;;;;;;10.50;7.90;;;19.90;99.90;;;;;;4975094;28;20634;-96
2023/08/16 00:16:13;;;;;;;9.48;7.43;;;19.90;99.90;;;;;;4943483;29;20279;-96
2023/08/16 00:18:40;;;;;;;10.75;8.43;;;19.90;99.90;;;;;;4939735;29;20207;-96
2023/08/16 00:21:05;;;;;;;11.25;7.65;;;19.90;99.90;;;;;;4940245;29;20240;-96
2023/08/16 00:23:32;;;;;;;8.75;7.18;;;19.80;99.90;;;;;;4940225;29;20580;-96
2023/08/16 00:25:58;;;;;;;10.10;7.75;;;19.80;99.90;;;;;;4939940;29;20191;-96
2023/08/16 00:28:24;;;;;;;12.10;7.78;;;19.80;99.90;;;;;;4934682;29;20180;-96
2023/08/16 00:30:55;;;;;;;10.95;7.53;;;19.70;99.90;;;;;;4947643;28;20253;-95
2023/08/16 00:33:25;;;;;;;11.50;7.45;;;19.70;99.90;;;;;;4939248;29;20188;-96
2023/08/16 00:35:52;;;;;;;10.35;7.40;;;19.70;99.90;;;;;;4940048;29;20177;-96
2023/08/16 00:38:18;;;;;;;11.55;8.00;;;19.80;99.90;;;;;;4939630;28;20247;-96
2023/08/16 00:40:51;;;;;;;12.77;8.70;;;19.80;99.90;;;;;;4956031;28;20181;-95
2023/08/16 00:43:18;;;;;;;12.10;7.47;;;19.80;99.90;;;;;;4958840;28;20603;-96
2023/08/16 00:45:45;;;;;;;9.25;7.22;;;19.80;99.90;;;;;;4949247;29;20199;-95
2023/08/16 00:48:13;;;;;;;8.85;7.95;;;19.80;99.90;;;;;;4939408;29;20276;-95
2023/08/16 00:50:39;;;;;;;10.35;7.32;;;19.80;99.90;;;;;;4939850;28;20282;-96
2023/08/16 00:53:06;;;;;;;13.65;7.28;;;19.80;99.90;;;;;;4959051;28;20188;-95
2023/08/16 00:55:35;;;;;;;11.52;6.57;;;19.70;99.90;;;;;;4958781;28;20271;-96
2023/08/16 00:58:01;;;;;;;13.30;7.10;;;19.60;99.90;;;;;;4958937;28;20173;-96
2023/08/16 01:00:28;;;;;;;11.77;7.18;;;19.60;99.90;;;;;;4946100;29;20513;-96
2023/08/16 01:02:54;;;;;;;9.48;7.32;;;19.50;99.90;;;;;;4927221;29;20285;-95
2023/08/16 01:05:21;;;;;;;11.55;8.23;;;19.40;99.90;;;;;;4919525;29;20178;-95
2023/08/16 01:07:46;;;;;;;8.15;7.07;;;19.40;99.90;;;;;;4934442;29;20273;-95
2023/08/16 01:10:12;;;;;;;8.57;6.50;;;19.40;99.90;;;;;;4920840;29;20277;-96
2023/08/16 01:12:49;;;;;;;9.20;7.22;;;19.40;99.90;;;;;;4924036;29;20185;-96
2023/08/16 01:15:36;;;;;;;11.63;7.88;;;19.40;99.90;;;;;;4924541;29;20189;-95
2023/08/16 01:18:02;;;;;;;8.48;7.57;;;19.30;99.90;;;;;;4905283;29;20210;-94
2023/08/16 01:20:31;;;;;;;8.73;7.10;;;19.30;99.90;;;;;;4918500;29;20186;-95
2023/08/16 01:23:00;;;;;;;8.63;6.57;;;19.30;99.90;;;;;;4930458;29;20217;-95
2023/08/16 01:25:53;;;;;;;8.85;6.53;;;19.30;99.90;;;;;;4924313;29;20190;-95
2023/08/16 01:28:20;;;;;;;6.85;6.13;;;19.30;99.90;;;;;;4923979;29;20697;-95
2023/08/16 01:30:46;;;;;;;9.13;5.50;;;19.20;99.90;;;;;;4923444;29;20190;-95
2023/08/16 01:33:13;;;;;;;5.97;5.40;;;19.20;99.90;;;;;;4923495;29;20237;-93
2023/08/16 01:35:41;;;;;;;9.07;6.10;;;19.20;99.90;;;;;;4924045;29;20174;-95
2023/08/16 01:38:10;;;;;;;7.10;5.18;;;19.20;99.90;;;;;;4905232;29;20637;-95
2023/08/16 01:41:01;;;;;;;6.57;5.90;;;19.20;99.90;;;;;;4915411;29;20187;-94
2023/08/16 01:43:29;;;;;;;4.63;4.22;;;19.20;99.90;;;;;;4920372;29;20222;-95
2023/08/16 01:46:08;;;;;;;5.18;4.28;;;19.10;99.90;;;;;;4905543;29;20187;-95
2023/08/16 01:48:36;;;;;;;4.93;4.18;;;19.10;99.90;;;;;;4917023;29;20242;-94
2023/08/16 01:51:02;;;;;;;5.90;4.47;;;19.10;99.90;;;;;;4923239;29;20599;-94
2023/08/16 01:53:28;;;;;;;6.68;5.30;;;19.10;99.90;;;;;;4923580;29;20204;-95
2023/08/16 01:55:55;;;;;;;7.22;4.93;;;19.00;99.90;;;;;;4923432;29;20572;-95
2023/08/16 01:58:21;;;;;;;6.38;5.20;;;19.00;99.90;;;;;;4923488;29;20178;-95
2023/08/16 02:00:47;;;;;;;8.35;5.53;;;18.90;99.90;;;;;;4920428;29;20238;-96
2023/08/16 02:03:12;;;;;;;6.38;5.70;;;18.90;99.90;;;;;;4907923;29;20565;-95
2023/08/16 02:05:41;;;;;;;7.40;6.43;;;18.90;99.90;;;;;;4916196;29;20197;-95
2023/08/16 02:08:07;;;;;;;12.73;6.45;;;18.90;99.90;;;;;;4922860;29;20178;-95
2023/08/16 02:10:33;;;;;;;11.30;6.57;;;18.90;99.90;;;;;;4934736;29;20191;-95
2023/08/16 02:12:59;;;;;;;13.27;6.78;;;18.90;99.90;;;;;;4942183;29;20627;-95
2023/08/16 02:15:44;;;;;;;11.05;6.32;;;18.90;99.90;;;;;;4942148;29;20236;-94
2023/08/16 02:18:13;;;;;;;7.43;6.28;;;18.90;99.90;;;;;;4941938;29;20683;-96
2023/08/16 02:20:40;;;;;;;9.88;6.07;;;18.80;99.90;;;;;;4922938;29;20190;-95
2023/08/16 02:23:06;;;;;;;7.88;6.35;;;18.70;99.90;;;;;;4922712;29;20209;-95
2023/08/16 02:25:39;;;;;;;8.77;5.85;;;18.70;99.90;;;;;;4922692;29;20682;-95
2023/08/16 02:28:05;;;;;;;6.57;5.72;;;18.70;99.90;;;;;;4923117;29;20272;-96
2023/08/16 02:30:31;;;;;;;7.00;6.30;;;18.60;99.90;;;;;;4923059;29;20648;-96
2023/08/16 02:32:57;;;;;;;7.28;5.97;;;18.60;99.90;;;;;;4922753;29;20241;-96
2023/08/16 02:35:23;;;;;;;8.38;6.18;;;18.70;99.90;;;;;;4922749;29;20189;-94
2023/08/16 02:37:48;;;;;;;6.40;5.80;;;18.80;99.90;;;;;;4922911;29;20205;-95
2023/08/16 02:40:14;;;;;;;8.05;5.93;;;18.80;99.90;;;;;;4948032;29;20185;-95
2023/08/16 02:42:40;;;;;;;6.20;5.63;;;18.80;99.90;;;;;;4927988;29;20214;-95
2023/08/16 02:45:10;;;;;;;6.57;5.95;;;18.70;99.90;;;;;;4939673;29;20213;-95
2023/08/16 02:47:36;;;;;;;5.93;5.00;;;18.60;99.90;;;;;;4938127;29;20182;-96
2023/08/16 02:50:01;;;;;;;7.20;4.55;;;18.60;99.90;;;;;;4935054;29;20186;-96
2023/08/16 02:52:27;;;;;;;4.88;4.30;;;18.50;99.90;;;;;;4922834;29;20185;-95
2023/08/16 02:54:54;;;;;;;7.47;4.45;;;18.40;99.90;;;;;;4922326;29;20182;-95
2023/08/16 02:57:20;;;;;;;7.25;4.30;;;18.40;99.90;;;;;;4922370;29;20209;-94
2023/08/16 02:59:48;;;;;;;7.65;5.10;;;18.40;99.90;;;;;;4921919;29;20268;-96
2023/08/16 03:02:14;;;;;;;8.50;5.32;;;18.30;99.90;;;;;;4922095;29;20241;-95
2023/08/16 03:04:50;;;;;;;7.45;4.80;;;18.30;99.90;;;;;;4921915;29;20205;-95
2023/08/16 03:07:16;;;;;;;10.13;5.75;;;18.30;99.90;;;;;;4922686;29;20672;-95
2023/08/16 03:09:42;;;;;;;4.55;4.00;;;18.20;99.90;;;;;;4922319;29;20193;-95
2023/08/16 03:12:07;;;;;;;7.57;4.05;;;18.20;99.90;;;;;;4921901;29;20219;-94
2023/08/16 03:14:38;;;;;;;2.60;2.40;;;18.10;99.90;;;;;;4922225;29;20182;-94
2023/08/16 03:17:05;;;;;;;2.33;2.13;;;18.10;99.90;;;;;;4922190;29;20181;-95
2023/08/16 03:19:31;;;;;;;3.38;2.08;;;18.00;99.90;;;;;;4922641;29;20613;-95
2023/08/16 03:21:56;;;;;;;3.15;2.40;;;18.00;99.90;;;;;;4941224;29;20196;-95
2023/08/16 03:24:22;;;;;;;3.72;3.33;;;18.00;99.90;;;;;;4940850;29;20557;-95
2023/08/16 03:26:48;;;;;;;5.07;3.42;;;17.90;99.90;;;;;;4940870;29;20181;-95
2023/08/16 03:29:14;;;;;;;6.75;3.00;;;17.90;99.90;;;;;;4940837;29;20227;-95
2023/08/16 03:31:39;;;;;;;3.97;3.30;;;17.90;99.90;;;;;;4922880;29;20190;-94
2023/08/16 03:34:05;;;;;;;6.40;3.78;;;18.00;99.90;;;;;;4920818;29;20185;-95
2023/08/16 03:36:33;;;;;;;4.80;4.07;;;17.90;99.90;;;;;;4921637;29;20177;-95
2023/08/16 03:38:59;;;;;;;5.70;3.50;;;17.80;99.90;;;;;;4919037;29;20241;-92
2023/08/16 03:41:24;;;;;;;7.35;4.10;;;17.80;99.90;;;;;;4917834;29;20181;-96
2023/08/16 03:43:50;;;;;;;5.97;4.18;;;17.80;99.90;;;;;;4921571;29;20297;-95
2023/08/16 03:46:23;;;;;;;5.65;4.13;;;17.80;99.90;;;;;;4921319;29;20178;-95
2023/08/16 03:48:49;;;;;;;6.63;4.05;;;17.80;99.90;;;;;;4921482;29;20268;-95
2023/08/16 03:51:14;;;;;;;7.18;4.47;;;17.80;99.90;;;;;;4918990;29;20222;-95
2023/08/16 03:53:40;;;;;;;8.13;4.18;;;17.80;99.90;;;;;;4918644;29;20187;-95
2023/08/16 03:56:09;;;;;;;4.90;4.15;;;17.90;99.90;;;;;;4918521;29;20175;-94
2023/08/16 03:58:34;;;;;;;8.05;4.78;;;17.90;99.90;;;;;;4918168;29;20183;-95
2023/08/16 04:01:00;;;;;;;7.72;4.70;;;17.90;99.90;;;;;;4928342;29;20638;-94
2023/08/16 04:03:26;;;;;;;6.90;4.50;;;18.00;99.90;;;;;;4920912;29;20684;-94
2023/08/16 04:05:53;;;;;;;5.75;4.70;;;18.00;99.90;;;;;;4921251;29;20189;-94
2023/08/16 04:08:19;;;;;;;4.40;4.00;;;17.90;99.90;;;;;;4921070;29;20174;-94
2023/08/16 04:10:45;;;;;;;6.82;3.80;;;17.90;99.90;;;;;;4921014;29;20186;-95
2023/08/16 04:13:10;;;;;;;5.93;3.72;;;17.80;99.90;;;;;;4920970;29;20186;-94
2023/08/16 04:15:41;;;;;;;9.15;4.10;;;17.80;99.90;;;;;;4921154;29;20186;-93
2023/08/16 04:18:07;;;;;;;5.68;4.05;;;17.70;99.90;;;;;;4920864;29;20249;-94
2023/08/16 04:20:33;;;;;;;7.18;4.32;;;17.70;99.90;;;;;;4927061;29;20209;-94
2023/08/16 04:22:59;;;;;;;5.90;4.20;;;17.70;99.90;;;;;;4940052;29;20180;-94
2023/08/16 04:25:33;;;;;;;5.18;4.00;;;17.70;99.90;;;;;;4940185;29;20185;-95
2023/08/16 04:27:59;;;;;;;4.82;4.20;;;17.70;99.90;;;;;;4939920;29;20180;-94
2023/08/16 04:30:24;;;;;;;7.15;4.68;;;17.70;99.90;;;;;;4935143;29;20185;-94
2023/08/16 04:32:50;;;;;;;5.43;4.55;;;17.60;99.90;;;;;;4920353;29;20204;-93
2023/08/16 04:35:16;;;;;;;6.00;4.75;;;17.60;99.90;;;;;;4920814;29;20548;-94
2023/08/16 04:37:42;;;;;;;6.68;4.43;;;17.50;99.90;;;;;;4920853;29;20247;-94
2023/08/16 04:40:08;;;;;;;7.45;4.40;;;17.50;99.90;;;;;;4920756;29;20185;-94
2023/08/16 04:42:34;;;;;;;5.05;4.13;;;17.50;99.90;;;;;;4920979;29;20186;-94
2023/08/16 04:45:04;;;;;;;5.07;4.05;;;17.50;99.90;;;;;;4920270;29;20308;-95
2023/08/16 04:47:30;;;;;;;7.13;3.92;;;17.50;99.90;;;;;;4925093;29;20181;-95
2023/08/16 04:49:56;;;;;;;5.28;4.22;;;17.50;99.90;;;;;;4924544;29;20197;-94
2023/08/16 04:52:22;;;;;;;5.28;4.10;;;17.60;99.90;;;;;;4924229;29;20181;-94
2023/08/16 04:54:48;;;;;;;5.90;4.45;;;17.70;99.90;;;;;;4924595;29;20264;-94
2023/08/16 04:57:14;;;;;;;6.00;4.47;;;17.70;99.90;;;;;;4943535;29;20181;-95
2023/08/16 04:59:39;;;;;;;7.50;4.65;;;17.90;99.90;;;;;;4943783;29;20237;-94
2023/08/16 05:02:05;;;;;;;6.15;4.70;;;17.90;99.90;;;;;;4931816;29;20225;-93
2023/08/16 05:04:31;;;;;;;6.65;4.40;;;17.90;99.90;;;;;;4943251;29;20675;-94
2023/08/16 05:06:57;;;;;;;5.10;3.88;;;18.00;99.90;;;;;;4943524;29;20177;-96
2023/08/16 05:09:23;;;;;;;6.35;4.30;;;18.00;99.90;;;;;;4943048;29;20336;-96
2023/08/16 05:11:49;;;;;;;7.53;4.35;;;18.00;99.90;;;;;;4956277;28;20278;-96
2023/08/16 05:14:14;;;;;;;7.47;3.50;;;18.10;99.90;;;;;;4962084;28;20212;-94
2023/08/16 05:16:55;;;;;;;6.43;3.55;;;18.10;99.90;;;;;;4955091;29;20177;-96
2023/08/16 05:19:21;;;;;;;8.23;3.80;;;18.20;99.90;;;;;;4948071;28;20189;-96
2023/08/16 05:21:47;;;;;;;6.03;3.50;;;18.20;99.90;;;;;;4961756;28;20635;-96
2023/08/16 05:24:13;;;;;;;6.72;3.58;;;18.20;99.90;;;;;;4940187;29;20229;-95
2023/08/16 05:26:43;;;;;;;9.18;4.22;;;18.20;99.90;;;;;;4952123;28;20553;-96
2023/08/16 05:29:09;;;;;;;7.43;4.10;;;18.10;99.90;;;;;;4954415;28;20193;-85
2023/08/16 05:31:36;;;;;;;6.90;3.67;;;18.10;99.90;;;;;;4940466;29;20185;-86
2023/08/16 05:34:02;;;;;;;7.45;3.85;;;18.20;99.90;;;;;;4956869;28;20625;-85
2023/08/16 05:36:29;;;;;;;6.05;3.60;;;18.20;99.90;;;;;;4957598;28;20181;-84
2023/08/16 05:38:55;;;;;;;5.07;3.40;;;18.30;99.90;;;;;;4941102;29;20312;-86
2023/08/16 05:41:20;;;;;;;4.53;3.08;;;18.30;99.90;;;;;;4940783;29;20232;-85
2023/08/16 05:43:46;;;;;;;6.90;2.90;;;18.20;99.90;;;;;;4939388;28;20224;-85
2023/08/16 05:46:12;;;;;;;5.10;2.75;;;18.30;99.90;;;;;;4957573;28;20256;-85
2023/08/16 05:48:37;;;;;;;6.85;2.97;;;18.30;99.90;;;;;;4956885;28;20195;-85
2023/08/16 05:51:03;;;;;;;4.15;3.00;;;18.40;99.90;;;;;;4956202;28;20185;-85
2023/08/16 05:53:29;;;;;;;7.93;3.78;;;18.40;99.90;;;;;;4940492;29;20186;-85
2023/08/16 05:55:55;;;;;;;8.10;3.80;;;18.40;99.90;;;;;;4939869;28;20656;-86
2023/08/16 05:58:21;;;;;;;5.10;3.45;;;18.40;99.90;;;;;;4939772;29;20208;-86
2023/08/16 06:00:47;;;;;;;6.13;3.20;;;18.50;99.90;;;;;;4957323;28;20240;-85
2023/08/16 06:03:14;;;;;;;5.65;3.33;;;18.50;99.90;;;;;;4941664;28;20676;-85
2023/08/16 06:05:40;;;;;;;6.38;3.00;;;18.50;99.90;;;;;;4937673;29;20209;-86
2023/08/16 06:08:08;;;;;;;9.52;3.38;;;18.50;99.90;;;;;;4919956;29;20633;-86
2023/08/16 06:10:34;;;;;;;5.63;3.25;;;18.50;99.90;;;;;;4922390;29;20193;-86
2023/08/16 06:12:59;;;;;;;5.65;2.88;;;18.60;99.90;;;;;;4919955;29;20189;-87
2023/08/16 06:15:25;;;;;;;6.20;3.03;;;18.60;99.90;;;;;;4921207;29;20644;-87
2023/08/16 06:17:51;;;;;;;6.25;3.13;;;18.60;99.90;;;;;;4919801;29;20662;-86
2023/08/16 06:20:16;;;;;;;9.30;2.83;;;18.70;99.90;;;;;;4936454;29;20198;-85
2023/08/16 06:22:42;;;;;;;8.70;2.45;;;18.80;99.90;;;;;;4920813;29;20190;-87
2023/08/16 06:25:09;;;;;;;6.30;2.25;;;18.80;99.90;;;;;;4920513;29;20365;-87
2023/08/16 06:27:35;;;;;;;5.82;2.30;;;18.80;99.90;;;;;;4921398;29;20192;-88
2023/08/16 06:30:01;;;;;;;4.32;1.90;;;18.90;99.90;;;;;;4919422;29;20606;-87
2023/08/16 06:32:27;;;;;;;3.95;2.00;;;18.90;99.90;;;;;;4936313;29;20225;-87
2023/08/16 06:34:52;;;;;;;5.45;2.20;;;19.10;99.90;;;;;;4921700;29;20217;-88
2023/08/16 06:37:18;;;;;;;7.88;2.65;;;19.30;99.90;;;;;;4938474;29;20186;-88
2023/08/16 06:39:44;;;;;;;4.03;1.85;;;19.40;99.90;;;;;;4937522;29;20261;-88
2023/08/16 06:42:13;;;;;;;4.72;2.03;;;19.50;99.90;;;;;;4930324;29;20273;-88
2023/08/16 06:44:39;;;;;;;6.82;2.15;;;19.50;99.90;;;;;;4927498;29;20224;-88
2023/08/16 06:47:05;;;;;;;5.43;2.28;;;19.50;99.90;;;;;;4921839;29;20174;-87
2023/08/16 06:49:31;;;;;;;4.03;1.98;;;19.60;99.90;;;;;;4918274;29;20190;-86
2023/08/16 06:51:57;;;;;;;8.32;1.98;;;19.60;99.90;;;;;;4918477;29;20201;-87
2023/08/16 06:54:23;;;;;;;2.85;2.03;;;19.60;99.90;;;;;;4920155;29;20190;-96
2023/08/16 06:56:49;;;;;;;4.38;1.90;;;19.50;99.90;;;;;;4934545;29;20190;-87
2023/08/16 06:59:15;;;;;;;3.58;1.70;;;19.40;99.90;;;;;;4933979;29;20273;-87
2023/08/16 07:01:41;;;;;;;4.35;1.92;;;19.40;99.90;;;;;;4926656;29;20253;-88
2023/08/16 07:04:07;;;;;;;6.60;2.25;;;19.40;99.90;;;;;;4938737;29;20233;-87
2023/08/16 07:06:33;;;;;;;5.68;2.13;;;19.30;99.90;;;;;;4955263;28;20196;-88
2023/08/16 07:08:59;;;;;;;4.10;1.90;;;19.30;99.90;;;;;;4937772;28;20205;-88
2023/08/16 07:11:25;;;;;;;2.50;1.60;;;19.30;99.90;;;;;;4938804;29;20185;-87
2023/08/16 07:13:51;;;;;;;5.28;2.38;;;19.30;99.90;;;;;;4954374;28;20181;-88
2023/08/16 07:16:18;;;;;;;5.63;2.38;;;19.40;99.90;;;;;;4939674;29;20181;-87
2023/08/16 07:18:45;;;;;;;6.53;2.20;;;19.40;99.90;;;;;;4938602;29;20188;-87
2023/08/16 07:21:11;;;;;;;4.50;1.95;;;19.50;99.90;;;;;;4938345;29;20332;-88
2023/08/16 07:23:37;;;;;;;6.65;2.30;;;19.60;99.90;;;;;;4955022;28;20303;-89
2023/08/16 07:26:03;;;;;;;4.57;2.15;;;19.70;99.90;;;;;;4938790;28;20215;-87
2023/08/16 07:28:31;;;;;;;4.43;1.98;;;19.80;99.90;;;;;;4937547;28;20245;-88
2023/08/16 07:31:18;;;;;;;3.25;1.95;;;20.00;99.90;;;;;;5111557;27;20560;-86
2023/08/16 07:33:44;;;;;;;5.65;2.15;;;20.00;99.90;;;;;;5096172;28;20660;-87
2023/08/16 07:36:09;;;;;;;4.65;2.20;;;19.90;99.90;;;;;;5087315;28;20212;-85
2023/08/16 07:38:36;;;;;;;6.22;2.00;;;20.00;99.90;;;;;;5085007;28;20215;-84
2023/08/16 07:41:02;;;;;;;6.45;2.30;;;20.20;99.90;;;;;;5086420;28;20208;-87
2023/08/16 07:43:29;;;;;;;5.20;2.30;;;20.20;99.90;;;;;;5087384;28;20214;-86
2023/08/16 07:45:54;;;;;;;6.38;1.90;;;20.20;99.90;;;;;;5106183;28;20185;-85
2023/08/16 07:48:21;;;;;;;7.53;2.22;;;20.20;99.90;;;;;;5084149;28;20176;-86
2023/08/16 07:50:48;;;;;;;6.22;2.20;;;20.30;99.90;;;;;;5123917;28;20561;-85
2023/08/16 07:53:14;;;;;;;4.00;2.05;;;20.40;99.90;;;;;;5089123;28;20584;-87
2023/08/16 07:55:40;;;;;;;4.75;1.73;;;20.40;99.90;;;;;;5091100;28;20173;-86
2023/08/16 07:58:05;;;;;;;4.95;1.92;;;20.50;99.90;;;;;;5082345;28;20184;-87
2023/08/16 08:00:31;;;;;;;4.07;1.88;;;20.60;99.90;;;;;;5089370;28;20517;-85
2023/08/16 08:02:57;;;;;;;5.72;1.88;;;20.70;99.90;;;;;;5076856;28;20213;-86
2023/08/16 08:05:23;;;;;;;4.72;2.22;;;20.80;99.90;;;;;;5089557;28;20252;-92
2023/08/16 08:07:54;;;;;;;6.38;1.80;;;20.80;99.90;;;;;;5077633;28;20254;-87
2023/08/16 08:10:20;;;;;;;6.57;2.20;;;20.90;99.90;;;;;;5069106;28;20254;-87
2023/08/16 08:12:46;;;;;;;4.47;2.00;;;20.90;99.90;;;;;;5069022;28;20173;-85
2023/08/16 08:15:12;;;;;;;4.35;2.20;;;20.90;99.90;;;;;;5111175;27;20242;-88
2023/08/16 08:17:40;;;;;;;4.35;2.00;;;21.00;99.90;;;;;;5071563;28;20185;-88
2023/08/16 08:20:07;;;;;;;6.85;1.90;;;21.10;99.90;;;;;;5070180;28;20161;-85
2023/08/16 08:22:33;;;;;;;6.55;2.30;;;21.20;99.90;;;;;;5069106;28;20196;-89
2023/08/16 08:25:00;;;;;;;8.93;2.60;;;21.20;99.90;;;;;;5103962;28;20647;-86
2023/08/16 08:27:26;;;;;;;4.55;2.13;;;21.30;99.90;;;;;;5075692;28;20866;-85
2023/08/16 08:29:52;;;;;;;3.10;2.20;;;21.40;99.90;;;;;;5088492;28;20233;-85
2023/08/16 08:32:17;;;;;;;5.28;2.13;;;21.40;99.90;;;;;;5089512;28;20181;-87
2023/08/16 08:34:43;;;;;;;4.00;2.05;;;21.30;99.90;;;;;;5089735;28;20204;-90
2023/08/16 08:37:09;;;;;;;5.20;2.20;;;21.30;99.90;;;;;;5085510;28;20177;-84
2023/08/16 08:39:35;;;;;;;6.00;2.38;;;21.30;99.90;;;;;;5079334;28;20184;-85
2023/08/16 08:42:02;;;;;;;4.40;2.38;;;21.20;99.90;;;;;;5077717;28;20178;-86
2023/08/16 08:44:30;;;;;;;5.22;2.50;;;21.30;99.90;;;;;;5076516;28;20195;-93
2023/08/16 08:46:56;;;;;;;5.80;3.67;;;21.40;99.90;;;;;;5076236;28;20193;-88
2023/08/16 08:49:22;;;;;;;7.35;2.60;;;21.40;99.90;;;;;;5075882;28;20209;-83
2023/08/16 08:51:50;;;;;;;6.40;3.28;;;21.50;99.90;;;;;;5075244;28;20275;-85
2023/08/16 08:54:16;;;;;;;6.93;2.97;;;21.60;99.90;;;;;;5109179;28;20166;-85
2023/08/16 08:56:43;;;;;;;4.35;2.22;;;21.70;99.90;;;;;;5075274;28;20185;-86
2023/08/16 08:59:11;;;;;;;8.02;2.58;;;21.80;99.90;;;;;;5054248;28;20200;-81
2023/08/16 09:01:39;;;;;;;7.85;2.92;;;21.90;99.90;;;;;;5056542;28;20185;-87
2023/08/16 09:04:05;;;;;;;5.03;3.03;;;22.10;99.90;;;;;;5073333;28;20196;-83
2023/08/16 09:06:32;;;;;;;5.32;3.40;;;22.10;99.90;;;;;;5073644;28;20177;-83
2023/08/16 09:09:00;;;;;;;5.47;3.13;;;22.10;99.90;;;;;;5106931;28;22136;-83
2023/08/16 09:11:26;;;;;;;5.90;2.67;;;22.20;99.90;;;;;;5074904;28;20288;-83
2023/08/16 09:13:53;;;;;;;3.28;2.30;;;22.40;99.90;;;;;;5073284;28;20276;-83
2023/08/16 09:16:20;;;;;;;6.15;3.20;;;22.40;99.90;;;;;;5072794;28;20498;-86
2023/08/16 09:18:53;;;;;;;6.18;3.20;;;22.50;99.90;;;;;;5071969;28;20216;-91
2023/08/16 09:21:24;;;;;;;7.82;3.53;;;22.50;99.90;;;;;;5077052;28;20185;-90
2023/08/16 09:23:58;;;;;;;5.38;3.05;;;22.30;99.90;;;;;;5076102;28;20622;-90
2023/08/16 09:26:26;;;;;;;5.13;2.85;;;22.30;99.90;;;;;;5076546;28;20184;-90
2023/08/16 09:29:00;;;;;;;5.30;2.53;;;22.40;99.90;;;;;;5068982;28;20231;-90
2023/08/16 09:31:30;;;;;;;6.78;2.63;;;22.60;99.90;;;;;;5055897;28;20200;-88
2023/08/16 09:34:01;;;;;;;6.85;2.22;;;22.80;99.90;;;;;;5061819;28;20613;-90
2023/08/16 09:36:30;;;;;;;5.97;1.92;;;22.80;99.90;;;;;;5056328;28;20170;-90
2023/08/16 09:39:15;;;;;;;4.45;1.95;;;22.90;99.90;;;;;;5072351;28;20498;-90
2023/08/16 09:41:50;;;;;;;4.70;2.05;;;22.80;99.90;;;;;;5077236;28;20169;-88
2023/08/16 09:44:17;;;;;;;3.10;1.88;;;22.70;99.90;;;;;;5075368;28;20199;-94
2023/08/16 09:46:43;;;;;;;4.07;2.08;;;22.50;99.90;;;;;;5074985;28;20623;-87
2023/08/16 09:49:10;;;;;;;7.13;2.40;;;22.30;99.90;;;;;;5074271;28;20216;-88
2023/08/16 09:51:40;;;;;;;4.45;1.90;;;22.30;99.90;;;;;;5076293;28;20227;-89
2023/08/16 09:54:14;;;;;;;3.63;2.30;;;22.20;99.90;;;;;;5074338;28;20634;-87
2023/08/16 09:56:41;;;;;;;3.90;2.20;;;22.20;99.90;;;;;;5059640;28;20228;-89
2023/08/16 09:59:09;;;;;;;6.28;2.63;;;22.20;99.90;;;;;;5074146;28;20685;-88
2023/08/16 10:01:35;;;;;;;7.00;2.95;;;22.40;99.90;;;;;;5074427;28;20285;-88
2023/08/16 10:04:02;;;;;;;7.03;2.42;;;22.50;99.90;;;;;;5075548;28;20218;-89
2023/08/16 10:06:30;;;;;;;4.90;2.30;;;22.40;99.90;;;;;;5075047;28;20620;-89
2023/08/16 10:09:02;;;;;;;5.78;2.60;;;22.40;99.90;;;;;;5091505;28;20186;-87
2023/08/16 10:11:28;;;;;;;2.83;2.28;;;22.40;99.90;;;;;;5088671;28;20220;-88
2023/08/16 10:13:54;;;;;;;4.43;2.35;;;22.40;99.90;;;;;;5073980;28;20615;-89
2023/08/16 10:16:22;;;;;;;6.78;2.42;;;22.40;99.90;;;;;;5065502;28;20197;-87
2023/08/16 10:18:52;;;;;;;3.95;2.22;;;22.60;99.90;;;;;;5054550;28;20730;-88
2023/08/16 10:21:18;;;;;;;5.32;2.63;;;22.90;99.90;;;;;;5054213;28;20194;-91
2023/08/16 10:23:44;;;;;;;5.45;2.60;;;23.20;99.90;;;;;;5073381;28;20181;-89
2023/08/16 10:26:15;;;;;;;5.03;2.38;;;23.30;99.90;;;;;;5071717;28;20186;-88
2023/08/16 10:28:52;;;;;;;5.40;2.63;;;23.30;99.90;;;;;;5060705;28;20650;-88
2023/08/16 10:31:22;;;;;;;7.15;2.70;;;23.40;99.90;;;;;;5070578;28;20229;-88
2023/08/16 10:33:50;;;;;;;6.93;2.90;;;23.60;99.90;;;;;;5074180;28;20608;-87
2023/08/16 10:36:17;;;;;;;5.97;2.55;;;23.60;99.90;;;;;;5075007;28;20518;-88
2023/08/16 10:38:42;;;;;;;4.57;3.20;;;23.70;99.90;;;;;;5108167;28;20520;-86
2023/08/16 10:41:13;;;;;;;5.68;2.80;;;23.80;99.90;;;;;;5107409;28;20189;-87
2023/08/16 10:43:45;;;;;;;5.65;2.55;;;23.80;99.90;;;;;;5056264;28;20182;-87
2023/08/16 10:46:11;;;;;;;6.28;2.58;;;23.80;99.90;;;;;;5068975;28;20221;-88
2023/08/16 10:48:36;;;;;;;7.30;2.65;;;23.80;99.90;;;;;;5062968;28;20577;-87
2023/08/16 10:51:08;;;;;;;5.28;3.05;;;24.00;99.90;;;;;;5054670;28;20209;-86
2023/08/16 10:53:37;;;;;;;6.13;2.97;;;24.10;99.90;;;;;;5072941;28;20227;-85
2023/08/16 10:56:07;;;;;;;5.05;3.13;;;24.10;99.90;;;;;;5074649;28;20202;-87
2023/08/16 10:58:52;;;;;;;3.78;2.72;;;24.10;99.90;;;;;;5069311;28;20295;-87
2023/08/16 11:01:32;;;;;;;6.88;3.58;;;23.90;99.90;;;;;;5059838;28;20673;-86
2023/08/16 11:04:05;;;;;;;5.65;3.47;;;24.10;99.90;;;;;;5053729;28;20271;-86
2023/08/16 11:06:32;;;;;;;6.15;3.90;;;24.10;99.90;;;;;;5074632;28;20280;-86
2023/08/16 11:09:00;;;;;;;4.00;3.13;;;24.30;99.90;;;;;;5072529;28;20185;-88
2023/08/16 11:11:27;;;;;;;6.00;3.53;;;24.40;99.90;;;;;;5071752;28;20216;-86
2023/08/16 11:13:59;;;;;;;7.40;3.60;;;24.40;99.90;;;;;;5074056;28;20256;-87
2023/08/16 11:16:24;;;;;;;7.38;3.13;;;24.40;99.90;;;;;;5071157;28;20177;-86
2023/08/16 11:18:50;;;;;;;5.60;3.03;;;24.30;99.90;;;;;;5073099;28;20238;-90
2023/08/16 11:21:17;;;;;;;5.55;2.92;;;24.40;99.90;;;;;;5069316;28;20177;-87
2023/08/16 11:23:43;;;;;;;8.15;2.80;;;24.50;99.90;;;;;;5062157;28;20189;-87
2023/08/16 11:26:10;;;;;;;6.07;2.70;;;24.60;99.90;;;;;;5067075;28;20204;-87
2023/08/16 11:28:38;;;;;;;4.00;3.03;;;24.60;99.90;;;;;;5072826;28;20192;-88
2023/08/16 11:31:06;;;;;;;6.32;3.60;;;24.60;99.90;;;;;;5071278;28;20243;-87
2023/08/16 11:33:33;;;;;;;8.63;2.97;;;24.50;99.90;;;;;;5073934;28;20580;-92
2023/08/16 11:36:05;;;;;;;4.97;3.28;;;24.50;99.90;;;;;;5072826;28;20204;-86
2023/08/16 11:38:31;;;;;;;4.72;3.30;;;24.70;99.90;;;;;;5064898;28;20635;-87
2023/08/16 11:40:57;;;;;;;8.70;3.00;;;24.70;99.90;;;;;;5060526;28;20200;-90
2023/08/16 11:43:31;;;;;;;6.28;3.03;;;24.70;99.90;;;;;;5072553;28;20181;-87
2023/08/16 11:45:58;;;;;;;5.85;3.10;;;24.70;99.90;;;;;;5072042;28;20199;-87
2023/08/16 11:48:25;;;;;;;4.63;2.80;;;24.50;99.90;;;;;;5072658;28;20184;-87
2023/08/16 11:50:51;;;;;;;5.85;3.20;;;24.50;99.90;;;;;;5071707;28;20216;-92
2023/08/16 11:53:18;;;;;;;5.60;3.80;;;24.80;99.90;;;;;;5072711;28;20272;-90
2023/08/16 11:56:09;;;;;;;6.93;3.50;;;25.00;99.90;;;;;;5074233;28;20173;-87
2023/08/16 11:58:45;;;;;;;4.53;3.05;;;25.20;99.90;;;;;;5053215;28;20178;-87
2023/08/16 12:01:14;;;;;;;4.20;3.20;;;25.40;99.90;;;;;;5057909;28;20278;-87
2023/08/16 12:03:42;;;;;;;5.20;3.40;;;25.50;99.90;;;;;;5072501;28;20183;-93
2023/08/16 12:06:11;;;;;;;4.93;3.05;;;25.50;99.90;;;;;;5062774;28;20548;-89
2023/08/16 12:08:51;;;;;;;6.05;3.20;;;25.70;99.90;;;;;;5073706;28;20642;-90
2023/08/16 12:11:28;;;;;;;8.07;3.28;;;25.70;99.90;;;;;;5071869;28;20644;-87
2023/08/16 12:13:54;;;;;;;7.30;3.47;;;25.80;99.90;;;;;;5055257;28;20181;-88
2023/08/16 12:16:20;;;;;;;5.88;3.40;;;25.80;99.90;;;;;;5060422;28;20178;-88
2023/08/16 12:18:49;;;;;;;8.95;3.45;;;25.90;99.90;;;;;;5077840;28;20170;-87
2023/08/16 12:21:15;;;;;;;6.07;3.22;;;26.00;99.90;;;;;;5110298;28;20174;-87
2023/08/16 12:23:41;;;;;;;7.75;3.05;;;26.00;99.90;;;;;;5077821;28;20663;-89
2023/08/16 12:26:07;;;;;;;7.43;3.33;;;26.00;99.90;;;;;;5076130;28;20214;-89
2023/08/16 12:28:33;;;;;;;5.40;3.15;;;26.20;99.90;;;;;;5077419;28;20173;-89
2023/08/16 12:31:01;;;;;;;5.10;3.03;;;26.30;99.90;;;;;;5074732;28;20783;-88
2023/08/16 12:33:27;;;;;;;7.55;3.40;;;26.10;99.90;;;;;;5077572;28;20597;-90
2023/08/16 12:35:53;;;;;;;4.75;3.10;;;26.30;99.90;;;;;;5075166;28;20212;-87
2023/08/16 12:38:19;;;;;;;5.53;3.17;;;26.30;99.90;;;;;;5076972;28;20208;-89
2023/08/16 12:40:49;;;;;;;10.07;3.40;;;26.00;99.90;;;;;;5075219;28;20181;-88
2023/08/16 12:43:15;;;;;;;4.47;3.25;;;25.90;99.90;;;;;;5076218;28;20611;-88
2023/08/16 12:45:41;;;;;;;3.78;2.95;;;25.90;99.90;;;;;;5109529;28;20188;-89
2023/08/16 12:48:06;;;;;;;7.53;3.45;;;25.90;99.90;;;;;;5056691;28;20192;-88
2023/08/16 12:50:32;;;;;;;5.35;3.15;;;25.90;99.90;;;;;;5058204;28;20210;-88